Community, Virginia
Current Conditions -  °F | °C
As of 3:58 AM on Friday 24 Oct 2014 (Local Time) from KDAA Reporting Station
Clear Clear  
Wind Chill: 54°   Ceiling: Unl
Heat Index: 54°   Visibility: 10mi
Dew Point: 42°   Wind: 7mph
Humidity: 64%   Direction: 300°WNW
Pressure: 29.93"   Gusts: NA
Location:  38.7569°N, 77.091°W
Report Text: KDAA 240758Z AUTO 30006KT 10SM CLR 12/05 A2993 RMK AO2 SLP138 T01210054
Loading
Personal Weather Stations






























Interactive Weather Map
Tropical Storm Tracking
New forecast layout! Learn more

10-Day Weather Forecast

Advertisements
Track Severe Weather on mobile